Time;durP1;ratioP1;P1;durP2;ratioP2;P2;SDS_P1;SDS_P2;PMS_P1;PMS_P2;Temp;Humidity;BMP_temperature;BMP_pressure;BME280_temperature;BME280_humidity;BME280_pressure;Samples;Min_cycle;Max_cycle;Signal;HPM_P1;HPM_P2
2023/04/08 00:01:58;;;;;;;3.08;1.10;;;3.90;99.90;;;;;;5051100;28;20517;-69
2023/04/08 00:04:24;;;;;;;2.92;1.30;;;3.90;99.90;;;;;;5050457;28;20037;-70
2023/04/08 00:06:50;;;;;;;2.17;1.35;;;3.90;99.90;;;;;;5050620;28;20039;-69
2023/04/08 00:09:16;;;;;;;1.92;1.15;;;3.90;99.90;;;;;;5049812;28;20045;-69
2023/04/08 00:11:41;;;;;;;2.60;1.17;;;3.90;99.90;;;;;;5050601;28;20086;-69
2023/04/08 00:14:08;;;;;;;4.28;2.13;;;3.90;99.90;;;;;;5033920;28;20394;-69
2023/04/08 00:16:33;;;;;;;1.92;1.27;;;3.80;99.90;;;;;;5050908;28;20122;-69
2023/04/08 00:19:00;;;;;;;2.83;1.75;;;3.90;99.90;;;;;;5051636;28;20083;-69
2023/04/08 00:21:26;;;;;;;2.30;1.75;;;3.90;99.90;;;;;;5050338;28;20041;-69
2023/04/08 00:23:51;;;;;;;1.48;1.10;;;3.90;99.90;;;;;;5050862;28;20064;-69
2023/04/08 00:26:17;;;;;;;2.85;1.08;;;3.80;99.90;;;;;;5051054;28;20048;-69
2023/04/08 00:28:43;;;;;;;2.50;1.55;;;3.80;99.90;;;;;;5051309;28;20052;-69
2023/04/08 00:31:09;;;;;;;1.77;0.77;;;3.80;99.90;;;;;;5050463;28;20114;-69
2023/04/08 00:33:35;;;;;;;1.83;1.02;;;3.80;99.90;;;;;;5051502;28;20045;-69
2023/04/08 00:36:02;;;;;;;1.50;1.05;;;3.80;99.90;;;;;;5050104;28;20080;-69
2023/04/08 00:38:27;;;;;;;3.53;1.50;;;3.80;99.90;;;;;;5049242;28;20465;-69
2023/04/08 00:40:53;;;;;;;3.60;1.65;;;3.70;99.90;;;;;;5050078;28;20036;-69
2023/04/08 00:43:20;;;;;;;2.47;1.33;;;3.60;99.90;;;;;;5049789;28;20402;-69
2023/04/08 00:45:49;;;;;;;2.95;1.00;;;3.60;99.90;;;;;;5050320;28;20493;-69
2023/04/08 00:48:15;;;;;;;2.85;0.93;;;3.60;99.90;;;;;;5049677;28;20045;-69
2023/04/08 00:50:42;;;;;;;2.45;1.30;;;3.50;99.90;;;;;;5050383;28;20041;-69
2023/04/08 00:53:09;;;;;;;1.23;0.90;;;3.50;99.90;;;;;;5050912;28;20064;-69
2023/04/08 00:55:35;;;;;;;1.52;0.68;;;3.40;99.90;;;;;;5049725;28;20379;-69
2023/04/08 00:58:01;;;;;;;5.85;2.15;;;3.30;99.90;;;;;;5050034;28;20579;-69
2023/04/08 01:00:29;;;;;;;3.67;1.42;;;3.20;99.90;;;;;;5049962;28;20037;-69
2023/04/08 01:03:16;;;;;;;2.00;0.93;;;3.20;99.90;;;;;;5050735;28;20111;-70
2023/04/08 01:06:16;;;;;;;1.00;0.90;;;3.10;99.90;;;;;;5050062;28;20107;-69
2023/04/08 01:08:43;;;;;;;1.83;0.93;;;3.10;99.90;;;;;;5025223;28;20045;-69
2023/04/08 01:11:12;;;;;;;2.13;1.20;;;3.00;99.90;;;;;;5049458;28;20041;-69
2023/04/08 01:13:41;;;;;;;6.43;1.70;;;2.90;99.90;;;;;;5048584;28;20124;-69
2023/04/08 01:16:12;;;;;;;0.85;0.60;;;2.90;99.90;;;;;;5050442;28;20482;-69
2023/04/08 01:18:40;;;;;;;1.73;1.17;;;2.80;99.90;;;;;;5049604;28;20511;-69
2023/04/08 01:21:07;;;;;;;2.50;0.80;;;2.80;99.90;;;;;;5049198;28;20049;-69
2023/04/08 01:23:51;;;;;;;2.97;1.27;;;2.80;99.90;;;;;;5048946;28;20103;-69
2023/04/08 01:26:23;;;;;;;1.73;0.90;;;2.70;99.90;;;;;;5031649;28;20071;-69
2023/04/08 01:28:52;;;;;;;1.65;1.08;;;2.70;99.90;;;;;;5049052;28;20044;-69
2023/04/08 01:31:18;;;;;;;3.73;1.33;;;2.70;99.90;;;;;;5049985;28;20087;-69
2023/04/08 01:33:46;;;;;;;1.15;0.73;;;2.70;99.90;;;;;;5049686;28;20116;-69
2023/04/08 01:36:13;;;;;;;1.65;1.33;;;2.70;99.90;;;;;;5050202;28;20052;-69
2023/04/08 01:38:39;;;;;;;1.83;0.90;;;2.70;99.90;;;;;;5048670;28;20052;-69
2023/04/08 01:41:07;;;;;;;1.17;0.90;;;2.60;99.90;;;;;;5048082;28;20033;-69
2023/04/08 01:43:35;;;;;;;5.80;1.10;;;2.60;99.90;;;;;;5048560;28;20041;-69
2023/04/08 01:46:01;;;;;;;6.38;0.98;;;2.60;99.90;;;;;;5049875;28;20108;-69
2023/04/08 01:48:28;;;;;;;1.55;1.00;;;2.60;99.90;;;;;;5047929;28;20087;-69
2023/04/08 01:50:55;;;;;;;1.73;0.47;;;2.60;99.90;;;;;;5048578;28;20529;-69
2023/04/08 01:53:21;;;;;;;2.00;1.13;;;2.50;99.90;;;;;;5048445;28;20056;-69
2023/04/08 01:55:54;;;;;;;3.35;1.55;;;2.50;99.90;;;;;;5048067;28;20051;-69
2023/04/08 01:58:21;;;;;;;4.90;1.83;;;2.40;99.90;;;;;;5049506;28;20037;-69
2023/04/08 02:00:48;;;;;;;1.20;0.77;;;2.40;99.90;;;;;;5047787;28;20082;-69
2023/04/08 02:03:17;;;;;;;2.95;0.85;;;2.40;99.90;;;;;;5048326;28;20515;-69
2023/04/08 02:05:43;;;;;;;1.50;0.90;;;2.30;99.90;;;;;;5049702;28;20516;-69
2023/04/08 02:08:09;;;;;;;1.13;0.63;;;2.30;99.90;;;;;;5047638;28;20427;-69
2023/04/08 02:10:34;;;;;;;3.42;1.15;;;2.20;99.90;;;;;;5048271;28;20050;-69
2023/04/08 02:13:02;;;;;;;1.35;0.98;;;2.20;99.90;;;;;;5049352;28;20045;-69
2023/04/08 02:15:32;;;;;;;3.17;1.15;;;2.10;99.90;;;;;;5047869;28;20383;-69
2023/04/08 02:18:12;;;;;;;2.30;0.80;;;2.10;99.90;;;;;;5049414;28;20053;-69
2023/04/08 02:20:46;;;;;;;2.80;1.17;;;2.10;99.90;;;;;;5048427;28;20174;-69
2023/04/08 02:23:23;;;;;;;1.20;0.65;;;2.10;99.90;;;;;;5047826;28;20076;-69
2023/04/08 02:25:50;;;;;;;1.42;0.82;;;2.10;99.90;;;;;;5047965;28;20132;-69
2023/04/08 02:28:17;;;;;;;1.40;1.15;;;2.10;99.90;;;;;;5047976;28;20102;-69
2023/04/08 02:30:49;;;;;;;3.80;1.17;;;2.00;99.90;;;;;;5030708;28;20056;-69
2023/04/08 02:33:18;;;;;;;2.10;1.27;;;2.00;99.90;;;;;;5048507;28;20302;-69
2023/04/08 02:35:45;;;;;;;1.40;1.00;;;2.00;99.90;;;;;;5048665;28;20124;-69
2023/04/08 02:38:11;;;;;;;0.82;0.65;;;2.00;99.90;;;;;;5047871;28;20049;-69
2023/04/08 02:40:37;;;;;;;2.58;1.58;;;2.00;99.90;;;;;;5049133;28;20377;-69
2023/04/08 02:43:03;;;;;;;1.52;1.25;;;2.00;99.90;;;;;;5047366;28;20044;-69
2023/04/08 02:45:37;;;;;;;1.23;1.13;;;2.00;99.90;;;;;;5048184;28;20085;-69
2023/04/08 02:48:05;;;;;;;1.58;0.95;;;2.00;99.90;;;;;;5049133;28;20052;-69
2023/04/08 02:50:31;;;;;;;1.35;0.90;;;2.00;99.90;;;;;;5048503;28;20045;-69
2023/04/08 02:52:56;;;;;;;1.33;1.02;;;2.00;99.90;;;;;;5047793;28;20099;-69
2023/04/08 02:55:22;;;;;;;2.70;1.88;;;2.00;99.90;;;;;;5031248;28;20041;-69
2023/04/08 02:57:48;;;;;;;2.40;1.15;;;2.00;99.90;;;;;;5048492;28;20037;-69
2023/04/08 03:00:15;;;;;;;2.00;1.00;;;2.00;99.90;;;;;;5047898;28;20037;-69
2023/04/08 03:02:40;;;;;;;2.33;0.98;;;2.00;99.90;;;;;;5049019;28;20044;-69
2023/04/08 03:05:07;;;;;;;3.97;1.30;;;2.00;99.90;;;;;;5046991;28;20033;-69
2023/04/08 03:07:33;;;;;;;2.10;0.75;;;2.00;99.90;;;;;;5048950;28;20052;-69
2023/04/08 03:09:58;;;;;;;2.08;0.75;;;1.90;99.90;;;;;;5031082;28;20045;-69
2023/04/08 03:12:26;;;;;;;3.35;1.05;;;2.00;99.90;;;;;;5048441;28;20144;-69
2023/04/08 03:14:52;;;;;;;3.10;1.55;;;1.90;99.90;;;;;;5047608;28;20510;-69
2023/04/08 03:17:18;;;;;;;1.58;0.73;;;2.00;99.90;;;;;;5047701;28;20049;-69
2023/04/08 03:19:43;;;;;;;1.13;0.60;;;1.90;99.90;;;;;;5047170;28;20084;-69
2023/04/08 03:22:09;;;;;;;1.83;1.15;;;1.90;99.90;;;;;;5047773;28;20041;-69
2023/04/08 03:24:36;;;;;;;1.38;0.90;;;1.80;99.90;;;;;;5049758;28;20049;-69
2023/04/08 03:27:02;;;;;;;1.27;0.75;;;1.80;99.90;;;;;;5034588;28;20055;-69
2023/04/08 03:29:28;;;;;;;2.35;1.42;;;1.70;99.90;;;;;;5051158;28;20120;-69
2023/04/08 03:31:54;;;;;;;1.95;1.08;;;1.70;99.90;;;;;;5051782;28;20072;-69
2023/04/08 03:34:20;;;;;;;2.97;1.45;;;1.70;99.90;;;;;;5051307;28;20039;-69
2023/04/08 03:36:45;;;;;;;2.20;0.70;;;1.70;99.90;;;;;;5051009;28;20516;-69
2023/04/08 03:39:11;;;;;;;1.58;1.30;;;1.60;99.90;;;;;;5050320;28;20049;-69
2023/04/08 03:41:37;;;;;;;1.85;1.10;;;1.60;99.90;;;;;;5052151;28;20044;-69
2023/04/08 03:44:03;;;;;;;2.20;1.20;;;1.60;99.90;;;;;;5052172;28;20091;-69
2023/04/08 03:46:28;;;;;;;2.50;0.85;;;1.60;99.90;;;;;;5033993;28;20055;-69
2023/04/08 03:48:54;;;;;;;3.72;1.52;;;1.60;99.90;;;;;;5052014;28;20529;-69
2023/04/08 03:51:20;;;;;;;2.58;1.20;;;1.50;99.90;;;;;;5050669;28;20045;-70
2023/04/08 03:53:48;;;;;;;2.17;1.63;;;1.50;99.90;;;;;;5051320;28;20067;-69
2023/04/08 03:56:14;;;;;;;0.95;0.75;;;1.50;99.90;;;;;;5050616;28;20045;-69
2023/04/08 03:58:40;;;;;;;1.60;0.98;;;1.50;99.90;;;;;;5051786;28;20097;-69
2023/04/08 04:01:05;;;;;;;1.52;1.02;;;1.50;99.90;;;;;;5050178;28;20123;-69
2023/04/08 04:03:31;;;;;;;2.38;1.33;;;1.50;99.90;;;;;;5050416;28;20398;-69
2023/04/08 04:05:57;;;;;;;2.10;1.45;;;1.50;99.90;;;;;;5051946;28;20116;-69
2023/04/08 04:08:22;;;;;;;1.00;0.88;;;1.40;99.90;;;;;;5049777;28;20041;-69
2023/04/08 04:10:48;;;;;;;3.45;1.48;;;1.30;99.90;;;;;;5051568;28;20045;-69
2023/04/08 04:13:14;;;;;;;2.60;1.15;;;1.40;99.90;;;;;;5050765;28;20076;-69
2023/04/08 04:15:40;;;;;;;6.25;1.58;;;1.30;99.90;;;;;;5049978;28;20041;-69
2023/04/08 04:18:07;;;;;;;2.33;1.33;;;1.30;99.90;;;;;;5051303;28;20033;-69
2023/04/08 04:20:32;;;;;;;2.97;1.45;;;1.30;99.90;;;;;;5049586;28;20048;-69
2023/04/08 04:22:58;;;;;;;1.08;0.98;;;1.30;99.90;;;;;;5050301;28;20037;-69
2023/04/08 04:25:24;;;;;;;1.83;1.05;;;1.30;99.90;;;;;;5033252;28;20409;-69
2023/04/08 04:27:50;;;;;;;4.15;0.88;;;1.30;99.90;;;;;;5050759;28;20106;-69
2023/04/08 04:30:15;;;;;;;5.15;1.55;;;1.30;99.90;;;;;;5051318;28;20036;-69
2023/04/08 04:32:42;;;;;;;5.07;1.70;;;1.20;99.90;;;;;;5050115;28;20570;-69
2023/04/08 04:35:11;;;;;;;5.85;2.00;;;1.30;99.90;;;;;;5049182;28;20045;-69
2023/04/08 04:37:37;;;;;;;0.90;0.63;;;1.30;99.90;;;;;;5051211;28;20133;-69
2023/04/08 04:40:04;;;;;;;2.90;1.40;;;1.30;99.90;;;;;;5051273;28;20033;-69
2023/04/08 04:42:30;;;;;;;2.80;1.45;;;1.30;99.90;;;;;;5049162;28;20045;-69
2023/04/08 04:44:56;;;;;;;6.43;1.75;;;1.30;99.90;;;;;;5049703;28;20086;-69
2023/04/08 04:47:22;;;;;;;3.78;1.05;;;1.30;99.90;;;;;;5049899;28;20049;-69
2023/04/08 04:49:48;;;;;;;1.67;0.90;;;1.30;99.90;;;;;;5049028;28;20497;-69
2023/04/08 04:52:14;;;;;;;3.33;1.67;;;1.30;99.90;;;;;;5049586;28;20041;-69
2023/04/08 04:54:40;;;;;;;2.17;1.23;;;1.30;99.90;;;;;;5049808;28;20059;-69
2023/04/08 04:57:06;;;;;;;2.50;0.82;;;1.30;99.90;;;;;;5050210;28;20076;-69
2023/04/08 04:59:31;;;;;;;3.20;2.17;;;1.30;99.90;;;;;;5033180;28;20628;-69
2023/04/08 05:01:57;;;;;;;2.80;1.15;;;1.30;99.90;;;;;;5049404;28;20041;-69
2023/04/08 05:04:24;;;;;;;2.53;1.77;;;1.30;99.90;;;;;;5050061;28;20041;-69
2023/04/08 05:06:50;;;;;;;1.48;1.20;;;1.30;99.90;;;;;;5049583;28;20409;-69
2023/04/08 05:09:15;;;;;;;5.88;2.00;;;1.30;99.90;;;;;;5049250;28;20045;-69
2023/04/08 05:11:41;;;;;;;1.25;1.05;;;1.30;99.90;;;;;;5050018;28;20114;-69
2023/04/08 05:14:07;;;;;;;3.55;1.83;;;1.20;99.90;;;;;;5050440;28;20064;-69
2023/04/08 05:16:33;;;;;;;2.97;1.65;;;1.20;99.90;;;;;;5049746;28;20087;-69
2023/04/08 05:18:59;;;;;;;2.95;1.95;;;1.20;99.90;;;;;;5049030;28;20401;-69
2023/04/08 05:21:26;;;;;;;2.03;1.23;;;1.20;99.90;;;;;;5049024;28;20041;-69
2023/04/08 05:23:53;;;;;;;8.60;2.05;;;1.20;99.90;;;;;;5049579;28;20044;-69
2023/04/08 05:26:20;;;;;;;1.75;1.10;;;1.20;99.90;;;;;;5048923;28;20191;-69
2023/04/08 05:28:47;;;;;;;2.55;1.67;;;1.20;99.90;;;;;;5032339;28;20469;-69
2023/04/08 05:31:18;;;;;;;3.05;1.63;;;1.10;99.90;;;;;;5049467;28;20037;-69
2023/04/08 05:33:44;;;;;;;3.08;1.30;;;1.10;99.90;;;;;;5050215;28;20040;-69
2023/04/08 05:36:10;;;;;;;1.80;1.50;;;1.20;99.90;;;;;;5049892;28;20489;-69
2023/04/08 05:38:37;;;;;;;2.28;1.35;;;1.30;99.90;;;;;;5048176;28;20386;-69
2023/04/08 05:41:02;;;;;;;2.70;1.13;;;1.30;99.90;;;;;;5048913;28;20041;-69
2023/04/08 05:43:28;;;;;;;1.70;0.88;;;1.30;99.90;;;;;;5049863;28;20041;-69
2023/04/08 05:45:54;;;;;;;0.60;0.50;;;1.40;99.90;;;;;;5047545;28;20098;-69
2023/04/08 05:48:20;;;;;;;1.95;1.10;;;1.40;99.90;;;;;;5050029;28;20041;-69
2023/04/08 05:50:47;;;;;;;2.35;1.15;;;1.40;99.90;;;;;;5031948;28;20560;-69
2023/04/08 05:53:13;;;;;;;2.25;0.95;;;1.40;99.90;;;;;;5031643;28;20090;-69
2023/04/08 05:55:40;;;;;;;3.53;1.83;;;1.50;99.90;;;;;;5048457;28;20056;-69
2023/04/08 05:58:06;;;;;;;3.72;1.73;;;1.50;99.90;;;;;;5049594;28;20045;-69
2023/04/08 06:00:32;;;;;;;3.30;1.88;;;1.60;99.90;;;;;;5047794;28;20041;-70
2023/04/08 06:02:58;;;;;;;3.08;1.67;;;1.70;99.90;;;;;;5048323;28;20044;-70
2023/04/08 06:05:24;;;;;;;6.40;2.50;;;1.80;99.90;;;;;;5049587;28;20048;-70
2023/04/08 06:07:50;;;;;;;3.67;1.45;;;1.90;99.90;;;;;;5049078;28;20037;-70
2023/04/08 06:10:15;;;;;;;1.95;1.45;;;2.00;99.90;;;;;;5031862;28;20114;-69
2023/04/08 06:12:41;;;;;;;3.83;1.77;;;2.00;99.90;;;;;;5047856;28;20141;-70
2023/04/08 06:15:08;;;;;;;8.05;3.60;;;2.10;99.90;;;;;;5048083;28;20063;-69
2023/04/08 06:17:37;;;;;;;4.03;1.77;;;2.20;99.90;;;;;;5049432;28;20041;-69
2023/04/08 06:20:05;;;;;;;4.30;1.38;;;2.30;99.90;;;;;;5030980;28;20072;-69
2023/04/08 06:22:31;;;;;;;4.82;1.70;;;2.40;99.90;;;;;;5049463;28;20043;-69
2023/04/08 06:24:57;;;;;;;6.70;2.38;;;2.50;99.90;;;;;;5048193;28;20048;-69
2023/04/08 06:27:22;;;;;;;3.72;1.67;;;2.70;99.90;;;;;;5048814;28;20041;-69
2023/04/08 06:29:48;;;;;;;2.38;1.33;;;2.80;99.90;;;;;;5049252;28;20045;-69
2023/04/08 06:32:14;;;;;;;4.70;2.10;;;3.00;99.90;;;;;;5047676;28;20091;-68
2023/04/08 06:34:40;;;;;;;4.03;2.25;;;3.40;99.90;;;;;;5049649;28;20041;-68
2023/04/08 06:37:06;;;;;;;4.20;2.15;;;4.00;99.90;;;;;;5050161;28;20116;-68
2023/04/08 06:39:32;;;;;;;6.70;2.85;;;4.60;99.90;;;;;;5048967;28;20120;-68
2023/04/08 06:41:58;;;;;;;7.07;2.70;;;5.20;99.90;;;;;;5049728;28;20076;-68
2023/04/08 06:44:24;;;;;;;5.72;2.70;;;5.70;99.90;;;;;;5050175;28;20029;-68
2023/04/08 06:46:50;;;;;;;9.25;2.88;;;6.10;99.90;;;;;;5050415;28;20083;-68
2023/04/08 06:49:16;;;;;;;6.22;3.00;;;6.30;99.90;;;;;;5048538;28;20044;-68
2023/04/08 06:51:41;;;;;;;7.65;3.22;;;6.50;99.90;;;;;;5048963;28;20045;-68
2023/04/08 06:54:09;;;;;;;9.30;3.63;;;6.70;99.90;;;;;;5049305;28;20071;-68
2023/04/08 06:56:36;;;;;;;8.15;2.90;;;6.70;99.90;;;;;;5068273;28;20101;-68
2023/04/08 06:59:02;;;;;;;5.15;3.05;;;6.50;99.90;;;;;;5057055;28;20591;-68
2023/04/08 07:01:29;;;;;;;10.23;3.42;;;6.30;99.90;;;;;;5053700;28;20386;-68
2023/04/08 07:03:56;;;;;;;6.00;2.95;;;6.10;99.90;;;;;;5063607;28;20037;-68
2023/04/08 07:06:22;;;;;;;5.97;2.70;;;5.90;99.90;;;;;;5080815;28;20081;-68
2023/04/08 07:08:48;;;;;;;5.55;2.55;;;5.80;99.90;;;;;;5053080;28;20137;-68
2023/04/08 07:11:13;;;;;;;7.38;3.38;;;5.70;99.90;;;;;;5053944;28;20596;-68
2023/04/08 07:13:39;;;;;;;4.28;1.95;;;5.70;99.90;;;;;;5054003;28;20060;-68
2023/04/08 07:16:05;;;;;;;6.05;2.75;;;5.80;99.90;;;;;;5052052;28;20041;-68
2023/04/08 07:18:31;;;;;;;5.18;2.15;;;5.90;99.90;;;;;;5035442;28;20041;-68
2023/04/08 07:20:59;;;;;;;9.40;3.95;;;6.00;99.90;;;;;;5053638;28;20117;-68
2023/04/08 07:23:25;;;;;;;6.72;2.35;;;6.10;99.90;;;;;;5050827;28;20143;-65
2023/04/08 07:25:51;;;;;;;6.78;2.58;;;6.20;99.90;;;;;;5052084;28;20541;-65
2023/04/08 07:28:17;;;;;;;7.03;3.03;;;6.40;99.90;;;;;;5052348;28;20652;-65
2023/04/08 07:30:43;;;;;;;5.85;2.92;;;6.70;99.90;;;;;;5051680;28;20437;-65
2023/04/08 07:33:09;;;;;;;5.43;2.53;;;7.00;99.90;;;;;;5051346;28;20102;-65
2023/04/08 07:35:38;;;;;;;4.97;2.38;;;7.40;99.90;;;;;;5052283;28;20498;-66
2023/04/08 07:38:08;;;;;;;4.80;2.20;;;7.70;99.90;;;;;;5050935;28;20055;-65
2023/04/08 07:40:33;;;;;;;5.15;2.30;;;7.80;99.90;;;;;;5052161;28;20040;-65
2023/04/08 07:42:59;;;;;;;9.25;3.78;;;7.90;99.90;;;;;;5053346;28;20040;-65
2023/04/08 07:45:25;;;;;;;9.63;3.65;;;7.80;99.90;;;;;;5052885;28;20064;-65
2023/04/08 07:47:50;;;;;;;6.90;2.58;;;7.80;99.90;;;;;;5052061;28;20077;-65
2023/04/08 07:50:17;;;;;;;7.18;2.47;;;7.70;99.90;;;;;;5053236;28;20044;-65
2023/04/08 07:52:42;;;;;;;7.40;3.97;;;7.70;99.90;;;;;;5052576;28;20078;-65
2023/04/08 07:55:08;;;;;;;8.02;2.65;;;7.70;99.90;;;;;;5052164;28;20053;-65
2023/04/08 07:57:34;;;;;;;7.18;4.10;;;7.70;99.90;;;;;;5051417;28;20051;-65
2023/04/08 08:00:00;;;;;;;8.18;2.88;;;7.70;99.90;;;;;;5052076;28;20041;-65
2023/04/08 08:02:26;;;;;;;7.43;3.00;;;7.60;99.90;;;;;;5051762;28;20386;-65
2023/04/08 08:04:52;;;;;;;8.73;3.05;;;7.70;99.90;;;;;;5051062;28;20044;-65
2023/04/08 08:07:17;;;;;;;7.50;2.85;;;7.70;99.90;;;;;;5051452;28;20033;-65
2023/04/08 08:09:43;;;;;;;6.97;2.97;;;7.70;99.90;;;;;;5052575;28;20044;-65
2023/04/08 08:12:09;;;;;;;9.07;3.78;;;7.60;99.90;;;;;;5052215;28;20329;-65
2023/04/08 08:14:35;;;;;;;8.82;3.53;;;7.60;99.90;;;;;;5051375;28;20072;-65
2023/04/08 08:17:02;;;;;;;5.72;2.33;;;7.70;99.90;;;;;;5051611;28;20117;-65
2023/04/08 08:19:27;;;;;;;7.10;2.90;;;7.80;99.90;;;;;;5050752;28;20546;-65
2023/04/08 08:21:53;;;;;;;6.88;3.60;;;7.90;99.90;;;;;;5052605;28;20072;-65
2023/04/08 08:24:19;;;;;;;7.88;3.05;;;7.90;99.90;;;;;;5052645;28;20120;-65
2023/04/08 08:26:46;;;;;;;7.93;3.35;;;8.00;99.90;;;;;;5050704;28;20045;-65
2023/04/08 08:29:11;;;;;;;5.35;2.95;;;8.10;99.90;;;;;;5051513;28;20065;-65
2023/04/08 08:31:37;;;;;;;8.25;3.50;;;8.10;99.90;;;;;;5051422;28;20485;-65
2023/04/08 08:34:03;;;;;;;8.13;3.28;;;8.20;99.90;;;;;;5051836;28;20041;-65
2023/04/08 08:36:30;;;;;;;8.55;3.90;;;8.30;99.90;;;;;;5051268;28;20049;-65
2023/04/08 08:38:55;;;;;;;5.45;3.08;;;8.40;99.90;;;;;;5049512;28;20045;-66
2023/04/08 08:41:21;;;;;;;7.43;3.30;;;8.70;99.90;;;;;;5049094;28;20124;-65
2023/04/08 08:43:48;;;;;;;8.60;3.55;;;9.10;99.90;;;;;;5051150;28;20037;-65
2023/04/08 08:46:16;;;;;;;10.27;4.03;;;9.90;99.90;;;;;;5049838;28;20048;-65
2023/04/08 08:48:43;;;;;;;7.80;3.30;;;10.60;99.90;;;;;;5032714;28;20057;-66
2023/04/08 08:51:10;;;;;;;7.85;3.85;;;10.80;99.90;;;;;;5050139;28;20443;-66
2023/04/08 08:53:36;;;;;;;8.70;3.65;;;10.70;99.90;;;;;;5050443;28;20040;-65
2023/04/08 08:56:03;;;;;;;8.02;3.53;;;10.50;99.90;;;;;;5050831;28;20398;-66
2023/04/08 08:58:28;;;;;;;7.78;4.40;;;10.40;99.90;;;;;;5049492;28;20444;-66
2023/04/08 09:00:54;;;;;;;7.18;3.90;;;10.60;99.90;;;;;;5048812;28;20045;-65
2023/04/08 09:03:27;;;;;;;8.05;3.63;;;11.40;99.90;;;;;;5049401;28;20041;-66
2023/04/08 09:05:59;;;;;;;8.52;3.97;;;12.10;99.90;;;;;;5049595;28;20048;-66
2023/04/08 09:08:35;;;;;;;8.82;4.03;;;12.10;99.90;;;;;;5049038;28;20053;-66
2023/04/08 09:11:18;;;;;;;8.27;3.60;;;12.00;99.90;;;;;;5032710;28;20044;-66
2023/04/08 09:13:45;;;;;;;7.53;3.35;;;12.00;99.90;;;;;;5049141;28;20049;-65
2023/04/08 09:16:13;;;;;;;8.43;3.50;;;12.30;99.90;;;;;;5048462;28;20570;-66
2023/04/08 09:18:42;;;;;;;7.78;3.53;;;12.90;99.90;;;;;;5048283;28;20041;-65
2023/04/08 09:21:08;;;;;;;7.60;3.67;;;13.40;99.90;;;;;;5047800;28;20124;-66
2023/04/08 09:23:54;;;;;;;9.43;3.95;;;13.60;99.90;;;;;;5047806;28;20120;-66
2023/04/08 09:26:22;;;;;;;7.05;3.67;;;14.00;99.90;;;;;;5047737;28;20518;-66
2023/04/08 09:29:02;;;;;;;8.00;3.92;;;14.50;99.90;;;;;;5048102;28;20048;-66
2023/04/08 09:31:30;;;;;;;7.95;3.78;;;14.80;99.90;;;;;;5037538;28;20048;-66
2023/04/08 09:33:58;;;;;;;7.88;4.03;;;15.20;99.90;;;;;;5051264;28;20044;-66
2023/04/08 09:36:27;;;;;;;7.32;3.72;;;15.60;99.90;;;;;;5050589;28;20119;-66
2023/04/08 09:38:54;;;;;;;6.95;3.33;;;15.70;99.90;;;;;;5048596;28;20041;-66
2023/04/08 09:41:22;;;;;;;8.23;4.32;;;16.00;99.90;;;;;;5048799;28;20041;-66
2023/04/08 09:43:57;;;;;;;7.97;3.47;;;16.10;99.90;;;;;;5048096;28;20131;-66
2023/04/08 09:46:44;;;;;;;6.25;3.83;;;16.20;99.90;;;;;;5048719;28;20044;-66
2023/04/08 09:49:17;;;;;;;5.50;3.33;;;16.30;99.90;;;;;;5048553;28;20041;-65
2023/04/08 09:51:52;;;;;;;5.93;3.03;;;16.30;99.90;;;;;;5049485;28;20147;-66
2023/04/08 09:54:22;;;;;;;8.25;3.53;;;16.50;99.90;;;;;;5032981;28;20124;-66
2023/04/08 09:56:57;;;;;;;;;;;16.70;99.90;;;;;;5049644;28;20048;-65
2023/04/08 09:59:26;;;;;;;5.32;3.10;;;16.90;99.90;;;;;;5049466;28;20432;-66
2023/04/08 10:01:53;;;;;;;;;;;17.20;99.90;;;;;;5049993;28;20048;-66
2023/04/08 10:04:21;;;;;;;6.07;3.38;;;17.40;99.90;;;;;;5048581;28;19956;-66
2023/04/08 10:06:53;;;;;;;6.97;3.03;;;17.60;99.90;;;;;;5049249;28;20044;-66
2023/04/08 10:09:21;;;;;;;7.55;3.60;;;17.80;99.90;;;;;;5049798;28;20036;-66
2023/04/08 10:11:47;;;;;;;5.88;3.05;;;18.00;99.90;;;;;;5050136;28;20044;-66
2023/04/08 10:14:13;;;;;;;6.30;3.05;;;18.00;99.90;;;;;;5049369;28;20473;-66
2023/04/08 10:16:39;;;;;;;5.72;2.83;;;18.00;99.90;;;;;;5050591;28;20043;-66
2023/04/08 10:19:36;;;;;;;3.58;2.08;;;18.00;99.90;;;;;;5048666;28;20076;-66
2023/04/08 10:22:01;;;;;;;7.55;3.22;;;18.10;99.90;;;;;;5049326;28;20048;-66
2023/04/08 10:24:37;;;;;;;5.78;2.50;;;18.40;99.90;;;;;;5060251;28;20044;-66
2023/04/08 10:27:43;;;;;;;5.60;3.30;;;18.50;99.90;;;;;;5056306;28;20041;-66
2023/04/08 10:30:35;;;;;;;7.50;2.80;;;18.50;99.90;;;;;;5031834;28;20055;-66
2023/04/08 10:33:36;;;;;;;5.82;3.40;;;18.50;99.90;;;;;;5035233;28;20048;-66
2023/04/08 10:36:18;;;;;;;9.07;3.28;;;18.50;99.90;;;;;;5046550;28;20060;-66
2023/04/08 10:38:55;;;;;;;5.93;3.53;;;18.70;99.90;;;;;;5052608;28;20401;-66
2023/04/08 10:41:30;;;;;;;4.60;2.65;;;18.60;99.90;;;;;;5051866;28;20082;-66
2023/04/08 10:44:21;;;;;;;5.22;2.65;;;18.50;99.90;;;;;;5052018;28;20045;-66
2023/04/08 10:47:08;;;;;;;5.20;2.97;;;18.20;99.90;;;;;;5051940;28;20464;-66
2023/04/08 10:49:53;;;;;;;5.82;2.63;;;18.20;99.90;;;;;;5051275;28;20555;-66
2023/04/08 10:52:38;;;;;;;5.10;2.38;;;18.20;99.90;;;;;;5051897;28;20397;-66
2023/04/08 10:55:28;;;;;;;5.82;2.53;;;18.20;99.90;;;;;;5050893;28;20052;-66
2023/04/08 10:58:15;;;;;;;5.35;2.70;;;18.30;99.90;;;;;;5050603;28;20044;-66
2023/04/08 11:00:48;;;;;;;5.18;2.70;;;18.60;99.90;;;;;;5049644;28;20037;-66
2023/04/08 11:03:30;;;;;;;6.15;2.65;;;19.00;99.90;;;;;;5050378;28;20044;-66
2023/04/08 11:06:13;;;;;;;4.90;2.53;;;19.10;99.90;;;;;;5051006;28;20066;-66
2023/04/08 11:08:58;;;;;;;5.85;2.55;;;18.60;99.90;;;;;;5049520;28;20084;-66
2023/04/08 11:11:38;;;;;;;4.85;2.25;;;18.00;99.90;;;;;;5050351;28;20401;-66
2023/04/08 11:14:21;;;;;;;5.63;3.13;;;17.90;99.90;;;;;;5049428;28;20051;-66
2023/04/08 11:17:04;;;;;;;5.50;2.40;;;18.20;99.90;;;;;;5050945;28;20045;-66
2023/04/08 11:19:47;;;;;;;6.03;2.65;;;18.30;99.90;;;;;;5049817;28;20171;-66
2023/04/08 11:22:33;;;;;;;3.80;2.30;;;17.90;99.90;;;;;;5050143;28;20087;-66
2023/04/08 11:25:02;;;;;;;4.80;2.33;;;17.30;99.90;;;;;;5050093;28;20048;-66
2023/04/08 11:27:30;;;;;;;4.03;2.28;;;16.70;99.90;;;;;;5051351;28;20045;-66
2023/04/08 11:30:00;;;;;;;4.93;2.50;;;16.20;99.90;;;;;;5049679;28;20040;-65
2023/04/08 11:32:30;;;;;;;4.13;2.13;;;15.90;99.90;;;;;;5033947;28;20378;-65
2023/04/08 11:35:01;;;;;;;7.05;3.13;;;15.40;99.90;;;;;;5049518;28;20040;-66
2023/04/08 11:37:43;;;;;;;8.00;3.08;;;15.40;99.90;;;;;;5033608;28;20041;-66
2023/04/08 11:40:12;;;;;;;5.95;2.35;;;15.60;99.90;;;;;;5049921;28;20036;-66
2023/04/08 11:42:41;;;;;;;6.43;2.85;;;15.50;99.90;;;;;;5049447;28;20045;-65
2023/04/08 11:45:18;;;;;;;5.80;2.90;;;15.30;99.90;;;;;;5049832;28;20443;-65
2023/04/08 11:47:47;;;;;;;7.07;3.13;;;15.10;99.90;;;;;;5049928;28;20128;-65
2023/04/08 11:50:24;;;;;;;6.55;3.60;;;14.90;99.90;;;;;;5050306;28;20037;-65
2023/04/08 11:52:52;;;;;;;5.75;2.75;;;15.00;99.90;;;;;;5063547;28;20044;-65
2023/04/08 11:55:32;;;;;;;6.10;2.50;;;15.10;99.90;;;;;;5069441;28;20051;-65
2023/04/08 11:58:06;;;;;;;4.65;2.60;;;15.70;99.90;;;;;;5070935;28;20045;-65
2023/04/08 12:00:36;;;;;;;7.05;2.35;;;16.10;99.90;;;;;;5069438;28;20477;-65
2023/04/08 12:03:06;;;;;;;4.78;2.60;;;16.10;99.90;;;;;;5070334;28;20170;-66
2023/04/08 12:05:32;;;;;;;4.95;2.75;;;16.00;99.90;;;;;;5069698;28;20460;-65
2023/04/08 12:08:03;;;;;;;6.13;2.60;;;15.60;99.90;;;;;;5069322;28;20052;-65
2023/04/08 12:10:35;;;;;;;5.10;2.45;;;15.40;99.90;;;;;;5068708;28;20473;-65
2023/04/08 12:13:02;;;;;;;5.28;2.60;;;15.30;99.90;;;;;;5069082;28;20056;-65
2023/04/08 12:15:35;;;;;;;4.40;2.00;;;15.30;99.90;;;;;;5053288;28;20036;-65
2023/04/08 12:18:07;;;;;;;5.28;2.45;;;15.30;99.90;;;;;;5068514;28;20083;-66
2023/04/08 12:20:50;;;;;;;3.67;1.80;;;15.40;99.90;;;;;;5069325;28;20037;-66
2023/04/08 12:23:20;;;;;;;3.88;2.03;;;15.40;99.90;;;;;;5069155;28;20039;-65
2023/04/08 12:25:49;;;;;;;4.57;2.40;;;15.30;99.90;;;;;;5069120;28;20515;-65
2023/04/08 12:28:16;;;;;;;6.05;2.67;;;15.30;99.90;;;;;;5069012;28;20048;-65
2023/04/08 12:30:43;;;;;;;6.88;3.20;;;15.30;99.90;;;;;;5069649;28;20557;-65
2023/04/08 12:33:14;;;;;;;4.85;2.70;;;15.20;99.90;;;;;;5069995;28;20059;-66
2023/04/08 12:35:43;;;;;;;4.35;2.35;;;15.10;99.90;;;;;;5070344;28;20063;-65
2023/04/08 12:38:21;;;;;;;5.18;2.50;;;15.00;99.90;;;;;;5069399;28;20039;-65
2023/04/08 12:40:51;;;;;;;4.60;2.42;;;14.70;99.90;;;;;;5068950;28;20089;-66
2023/04/08 12:43:19;;;;;;;4.47;2.47;;;14.40;99.90;;;;;;5068875;28;20076;-65
2023/04/08 12:45:47;;;;;;;5.30;2.72;;;14.20;99.90;;;;;;5069310;28;20044;-66
2023/04/08 12:48:15;;;;;;;4.80;2.03;;;14.00;99.90;;;;;;5052238;28;20153;-66
2023/04/08 12:50:41;;;;;;;4.55;2.47;;;13.80;99.90;;;;;;5070158;28;20071;-65
2023/04/08 12:53:11;;;;;;;4.00;1.88;;;13.70;99.90;;;;;;5069131;28;20076;-65
2023/04/08 12:55:40;;;;;;;5.13;1.77;;;13.60;99.90;;;;;;5068611;28;20033;-65
2023/04/08 12:58:06;;;;;;;4.15;2.55;;;13.60;99.90;;;;;;5068230;28;20087;-66
2023/04/08 13:00:45;;;;;;;4.03;1.88;;;13.80;99.90;;;;;;5067978;28;20136;-66
2023/04/08 13:03:16;;;;;;;3.88;1.83;;;14.00;99.90;;;;;;5069552;28;20036;-66
2023/04/08 13:05:50;;;;;;;3.40;1.92;;;14.40;99.90;;;;;;5068827;28;20083;-66